sensor_id;sensor_type;location;lat;lon;timestamp;P1;durP1;ratioP1;P2;durP2;ratioP2
30472;SDS011;17263;48.160;11.452;2023-04-06T00:01:40;7.97;;;6.73;;
30472;SDS011;17263;48.160;11.452;2023-04-06T00:04:06;7.17;;;6.47;;
30472;SDS011;17263;48.160;11.452;2023-04-06T00:06:33;8.27;;;6.23;;
30472;SDS011;17263;48.160;11.452;2023-04-06T00:08:59;8.47;;;5.27;;
30472;SDS011;17263;48.160;11.452;2023-04-06T00:11:26;8.57;;;6.47;;
30472;SDS011;17263;48.160;11.452;2023-04-06T00:13:52;9.20;;;6.20;;
30472;SDS011;17263;48.160;11.452;2023-04-06T00:16:18;10.47;;;6.27;;
30472;SDS011;17263;48.160;11.452;2023-04-06T00:18:45;8.53;;;5.90;;
30472;SDS011;17263;48.160;11.452;2023-04-06T00:21:11;7.53;;;5.90;;
30472;SDS011;17263;48.160;11.452;2023-04-06T00:23:41;6.93;;;5.80;;
30472;SDS011;17263;48.160;11.452;2023-04-06T00:26:08;8.70;;;6.13;;
30472;SDS011;17263;48.160;11.452;2023-04-06T00:28:34;7.00;;;5.90;;
30472;SDS011;17263;48.160;11.452;2023-04-06T00:31:00;8.77;;;6.40;;
30472;SDS011;17263;48.160;11.452;2023-04-06T00:33:26;7.00;;;5.97;;
30472;SDS011;17263;48.160;11.452;2023-04-06T00:35:52;6.43;;;5.73;;
30472;SDS011;17263;48.160;11.452;2023-04-06T00:38:18;8.70;;;5.87;;
30472;SDS011;17263;48.160;11.452;2023-04-06T00:40:44;7.63;;;5.70;;
30472;SDS011;17263;48.160;11.452;2023-04-06T00:43:11;6.97;;;5.23;;
30472;SDS011;17263;48.160;11.452;2023-04-06T00:45:40;8.80;;;5.50;;
30472;SDS011;17263;48.160;11.452;2023-04-06T00:48:07;7.13;;;5.77;;
30472;SDS011;17263;48.160;11.452;2023-04-06T00:50:34;6.63;;;5.90;;
30472;SDS011;17263;48.160;11.452;2023-04-06T00:53:00;5.97;;;5.37;;
30472;SDS011;17263;48.160;11.452;2023-04-06T00:55:27;9.23;;;6.30;;
30472;SDS011;17263;48.160;11.452;2023-04-06T00:57:53;8.00;;;5.80;;
30472;SDS011;17263;48.160;11.452;2023-04-06T01:00:21;6.50;;;5.50;;
30472;SDS011;17263;48.160;11.452;2023-04-06T01:02:47;7.33;;;5.63;;
30472;SDS011;17263;48.160;11.452;2023-04-06T01:05:14;9.10;;;5.80;;
30472;SDS011;17263;48.160;11.452;2023-04-06T01:07:40;7.77;;;6.00;;
30472;SDS011;17263;48.160;11.452;2023-04-06T01:10:06;7.53;;;5.93;;
30472;SDS011;17263;48.160;11.452;2023-04-06T01:12:33;7.90;;;5.90;;
30472;SDS011;17263;48.160;11.452;2023-04-06T01:14:59;9.37;;;6.07;;
30472;SDS011;17263;48.160;11.452;2023-04-06T01:17:25;9.83;;;6.13;;
30472;SDS011;17263;48.160;11.452;2023-04-06T01:19:51;8.57;;;5.73;;
30472;SDS011;17263;48.160;11.452;2023-04-06T01:22:19;9.93;;;6.80;;
30472;SDS011;17263;48.160;11.452;2023-04-06T01:24:46;10.10;;;6.60;;
30472;SDS011;17263;48.160;11.452;2023-04-06T01:27:12;9.77;;;6.77;;
30472;SDS011;17263;48.160;11.452;2023-04-06T01:29:39;7.93;;;6.30;;
30472;SDS011;17263;48.160;11.452;2023-04-06T01:32:08;8.70;;;6.30;;
30472;SDS011;17263;48.160;11.452;2023-04-06T01:34:34;7.83;;;6.07;;
30472;SDS011;17263;48.160;11.452;2023-04-06T01:37:01;8.10;;;6.47;;
30472;SDS011;17263;48.160;11.452;2023-04-06T01:39:27;7.90;;;6.40;;
30472;SDS011;17263;48.160;11.452;2023-04-06T01:41:53;8.47;;;6.77;;
30472;SDS011;17263;48.160;11.452;2023-04-06T01:44:19;7.67;;;5.97;;
30472;SDS011;17263;48.160;11.452;2023-04-06T01:46:45;8.10;;;6.20;;
30472;SDS011;17263;48.160;11.452;2023-04-06T01:49:12;6.23;;;5.30;;
30472;SDS011;17263;48.160;11.452;2023-04-06T01:51:38;6.50;;;5.60;;
30472;SDS011;17263;48.160;11.452;2023-04-06T01:54:04;6.70;;;5.70;;
30472;SDS011;17263;48.160;11.452;2023-04-06T01:56:30;9.03;;;6.37;;
30472;SDS011;17263;48.160;11.452;2023-04-06T01:58:56;7.07;;;5.77;;
30472;SDS011;17263;48.160;11.452;2023-04-06T02:01:23;6.67;;;5.77;;
30472;SDS011;17263;48.160;11.452;2023-04-06T02:03:49;10.43;;;6.40;;
30472;SDS011;17263;48.160;11.452;2023-04-06T02:06:15;7.27;;;5.57;;
30472;SDS011;17263;48.160;11.452;2023-04-06T02:08:41;8.13;;;5.97;;
30472;SDS011;17263;48.160;11.452;2023-04-06T02:11:07;6.33;;;5.60;;
30472;SDS011;17263;48.160;11.452;2023-04-06T02:13:33;8.47;;;5.33;;
30472;SDS011;17263;48.160;11.452;2023-04-06T02:15:59;6.93;;;5.23;;
30472;SDS011;17263;48.160;11.452;2023-04-06T02:18:25;6.60;;;5.20;;
30472;SDS011;17263;48.160;11.452;2023-04-06T02:20:51;7.73;;;5.60;;
30472;SDS011;17263;48.160;11.452;2023-04-06T02:23:17;7.23;;;5.07;;
30472;SDS011;17263;48.160;11.452;2023-04-06T02:25:43;6.67;;;5.43;;
30472;SDS011;17263;48.160;11.452;2023-04-06T02:28:09;7.33;;;5.60;;
30472;SDS011;17263;48.160;11.452;2023-04-06T02:30:35;7.03;;;5.47;;
30472;SDS011;17263;48.160;11.452;2023-04-06T02:33:01;7.03;;;5.70;;
30472;SDS011;17263;48.160;11.452;2023-04-06T02:35:28;7.47;;;5.20;;
30472;SDS011;17263;48.160;11.452;2023-04-06T02:37:55;6.60;;;5.20;;
30472;SDS011;17263;48.160;11.452;2023-04-06T02:40:21;6.93;;;5.23;;
30472;SDS011;17263;48.160;11.452;2023-04-06T02:42:47;8.93;;;5.97;;
30472;SDS011;17263;48.160;11.452;2023-04-06T02:45:13;6.77;;;4.97;;
30472;SDS011;17263;48.160;11.452;2023-04-06T02:47:39;7.37;;;5.40;;
30472;SDS011;17263;48.160;11.452;2023-04-06T02:50:05;7.63;;;5.20;;
30472;SDS011;17263;48.160;11.452;2023-04-06T02:52:32;8.83;;;5.57;;
30472;SDS011;17263;48.160;11.452;2023-04-06T02:54:58;9.03;;;5.53;;
30472;SDS011;17263;48.160;11.452;2023-04-06T02:57:24;7.10;;;5.43;;
30472;SDS011;17263;48.160;11.452;2023-04-06T02:59:50;6.50;;;5.57;;
30472;SDS011;17263;48.160;11.452;2023-04-06T03:02:16;7.40;;;5.83;;
30472;SDS011;17263;48.160;11.452;2023-04-06T03:04:42;6.37;;;5.20;;
30472;SDS011;17263;48.160;11.452;2023-04-06T03:07:09;6.77;;;5.00;;
30472;SDS011;17263;48.160;11.452;2023-04-06T03:09:39;7.97;;;5.20;;
30472;SDS011;17263;48.160;11.452;2023-04-06T03:12:05;5.90;;;4.97;;
30472;SDS011;17263;48.160;11.452;2023-04-06T03:14:31;6.20;;;5.13;;
30472;SDS011;17263;48.160;11.452;2023-04-06T03:16:57;6.33;;;5.20;;
30472;SDS011;17263;48.160;11.452;2023-04-06T03:19:24;6.00;;;5.40;;
30472;SDS011;17263;48.160;11.452;2023-04-06T03:21:50;6.20;;;5.57;;
30472;SDS011;17263;48.160;11.452;2023-04-06T03:24:16;7.83;;;5.97;;
30472;SDS011;17263;48.160;11.452;2023-04-06T03:26:42;8.67;;;5.60;;
30472;SDS011;17263;48.160;11.452;2023-04-06T03:29:08;8.80;;;5.90;;
30472;SDS011;17263;48.160;11.452;2023-04-06T03:31:34;8.20;;;6.00;;
30472;SDS011;17263;48.160;11.452;2023-04-06T03:34:00;7.63;;;6.20;;
30472;SDS011;17263;48.160;11.452;2023-04-06T03:36:26;7.77;;;5.50;;
30472;SDS011;17263;48.160;11.452;2023-04-06T03:38:52;10.07;;;5.97;;
30472;SDS011;17263;48.160;11.452;2023-04-06T03:41:19;8.43;;;5.83;;
30472;SDS011;17263;48.160;11.452;2023-04-06T03:43:45;8.47;;;5.93;;
30472;SDS011;17263;48.160;11.452;2023-04-06T03:46:11;8.47;;;6.17;;
30472;SDS011;17263;48.160;11.452;2023-04-06T03:48:37;10.97;;;6.43;;
30472;SDS011;17263;48.160;11.452;2023-04-06T03:51:03;7.93;;;6.30;;
30472;SDS011;17263;48.160;11.452;2023-04-06T03:53:29;9.13;;;6.27;;
30472;SDS011;17263;48.160;11.452;2023-04-06T03:55:55;8.20;;;6.33;;
30472;SDS011;17263;48.160;11.452;2023-04-06T03:58:21;8.37;;;6.80;;
30472;SDS011;17263;48.160;11.452;2023-04-06T04:00:47;8.40;;;6.70;;
30472;SDS011;17263;48.160;11.452;2023-04-06T04:03:13;9.90;;;6.37;;
30472;SDS011;17263;48.160;11.452;2023-04-06T04:05:39;6.77;;;6.00;;
30472;SDS011;17263;48.160;11.452;2023-04-06T04:08:05;9.07;;;6.50;;
30472;SDS011;17263;48.160;11.452;2023-04-06T04:10:31;9.57;;;6.27;;
30472;SDS011;17263;48.160;11.452;2023-04-06T04:12:57;9.13;;;6.90;;
30472;SDS011;17263;48.160;11.452;2023-04-06T04:15:23;8.07;;;6.10;;
30472;SDS011;17263;48.160;11.452;2023-04-06T04:17:49;9.23;;;6.77;;
30472;SDS011;17263;48.160;11.452;2023-04-06T04:20:16;7.83;;;6.53;;
30472;SDS011;17263;48.160;11.452;2023-04-06T04:22:42;9.17;;;6.43;;
30472;SDS011;17263;48.160;11.452;2023-04-06T04:25:09;6.87;;;6.00;;
30472;SDS011;17263;48.160;11.452;2023-04-06T04:27:35;9.53;;;6.27;;
30472;SDS011;17263;48.160;11.452;2023-04-06T04:30:01;8.53;;;6.67;;
30472;SDS011;17263;48.160;11.452;2023-04-06T04:32:27;10.33;;;6.97;;
30472;SDS011;17263;48.160;11.452;2023-04-06T04:34:53;8.63;;;6.50;;
30472;SDS011;17263;48.160;11.452;2023-04-06T04:37:19;9.57;;;6.70;;
30472;SDS011;17263;48.160;11.452;2023-04-06T04:39:45;9.23;;;6.73;;
30472;SDS011;17263;48.160;11.452;2023-04-06T04:42:11;9.10;;;6.77;;
30472;SDS011;17263;48.160;11.452;2023-04-06T04:44:37;11.83;;;6.17;;
30472;SDS011;17263;48.160;11.452;2023-04-06T04:47:04;8.67;;;6.97;;
30472;SDS011;17263;48.160;11.452;2023-04-06T04:49:30;9.60;;;7.17;;
30472;SDS011;17263;48.160;11.452;2023-04-06T04:51:56;7.73;;;6.97;;
30472;SDS011;17263;48.160;11.452;2023-04-06T04:54:22;9.23;;;7.20;;
30472;SDS011;17263;48.160;11.452;2023-04-06T04:56:48;9.43;;;7.13;;
30472;SDS011;17263;48.160;11.452;2023-04-06T04:59:15;9.07;;;7.10;;
30472;SDS011;17263;48.160;11.452;2023-04-06T05:01:41;9.43;;;6.90;;
30472;SDS011;17263;48.160;11.452;2023-04-06T05:04:07;16.33;;;7.67;;
30472;SDS011;17263;48.160;11.452;2023-04-06T05:06:33;7.67;;;6.67;;
30472;SDS011;17263;48.160;11.452;2023-04-06T05:08:59;7.90;;;6.70;;
30472;SDS011;17263;48.160;11.452;2023-04-06T05:11:25;11.60;;;7.40;;
30472;SDS011;17263;48.160;11.452;2023-04-06T05:13:51;12.53;;;7.80;;
30472;SDS011;17263;48.160;11.452;2023-04-06T05:16:17;10.77;;;7.20;;
30472;SDS011;17263;48.160;11.452;2023-04-06T05:18:43;8.40;;;7.37;;
30472;SDS011;17263;48.160;11.452;2023-04-06T05:21:10;8.13;;;6.77;;
30472;SDS011;17263;48.160;11.452;2023-04-06T05:23:37;10.03;;;7.13;;
30472;SDS011;17263;48.160;11.452;2023-04-06T05:26:03;11.03;;;7.43;;
30472;SDS011;17263;48.160;11.452;2023-04-06T05:28:30;8.87;;;7.17;;
30472;SDS011;17263;48.160;11.452;2023-04-06T05:30:56;8.60;;;7.10;;
30472;SDS011;17263;48.160;11.452;2023-04-06T05:33:23;7.57;;;6.67;;
30472;SDS011;17263;48.160;11.452;2023-04-06T05:35:50;8.20;;;6.90;;
30472;SDS011;17263;48.160;11.452;2023-04-06T05:38:16;9.43;;;7.03;;
30472;SDS011;17263;48.160;11.452;2023-04-06T05:40:42;9.97;;;7.77;;
30472;SDS011;17263;48.160;11.452;2023-04-06T05:43:08;9.97;;;7.47;;
30472;SDS011;17263;48.160;11.452;2023-04-06T05:45:34;9.43;;;6.93;;
30472;SDS011;17263;48.160;11.452;2023-04-06T05:48:01;7.37;;;6.60;;
30472;SDS011;17263;48.160;11.452;2023-04-06T05:50:27;13.00;;;8.13;;
30472;SDS011;17263;48.160;11.452;2023-04-06T05:52:54;8.17;;;6.93;;
30472;SDS011;17263;48.160;11.452;2023-04-06T05:55:20;8.50;;;7.37;;
30472;SDS011;17263;48.160;11.452;2023-04-06T05:57:46;8.60;;;7.10;;
30472;SDS011;17263;48.160;11.452;2023-04-06T06:00:12;10.03;;;7.10;;
30472;SDS011;17263;48.160;11.452;2023-04-06T06:02:38;8.07;;;6.87;;
30472;SDS011;17263;48.160;11.452;2023-04-06T06:05:05;12.30;;;7.17;;
30472;SDS011;17263;48.160;11.452;2023-04-06T06:07:31;7.60;;;6.90;;
30472;SDS011;17263;48.160;11.452;2023-04-06T06:09:57;7.67;;;6.33;;
30472;SDS011;17263;48.160;11.452;2023-04-06T06:12:23;8.53;;;6.77;;
30472;SDS011;17263;48.160;11.452;2023-04-06T06:14:49;8.10;;;6.17;;
30472;SDS011;17263;48.160;11.452;2023-04-06T06:17:15;10.37;;;6.10;;
30472;SDS011;17263;48.160;11.452;2023-04-06T06:19:41;7.83;;;6.10;;
30472;SDS011;17263;48.160;11.452;2023-04-06T06:22:07;9.43;;;6.60;;
30472;SDS011;17263;48.160;11.452;2023-04-06T06:24:33;8.90;;;6.10;;
30472;SDS011;17263;48.160;11.452;2023-04-06T06:26:59;7.63;;;6.50;;
30472;SDS011;17263;48.160;11.452;2023-04-06T06:29:25;7.47;;;6.43;;
30472;SDS011;17263;48.160;11.452;2023-04-06T06:31:51;8.60;;;5.60;;
30472;SDS011;17263;48.160;11.452;2023-04-06T06:34:17;8.13;;;5.57;;
30472;SDS011;17263;48.160;11.452;2023-04-06T06:36:43;7.40;;;5.47;;
30472;SDS011;17263;48.160;11.452;2023-04-06T06:39:09;5.47;;;4.63;;
30472;SDS011;17263;48.160;11.452;2023-04-06T06:41:35;8.03;;;5.33;;
30472;SDS011;17263;48.160;11.452;2023-04-06T06:44:01;8.53;;;5.47;;
30472;SDS011;17263;48.160;11.452;2023-04-06T06:46:28;9.20;;;5.30;;
30472;SDS011;17263;48.160;11.452;2023-04-06T06:48:55;11.10;;;5.70;;
30472;SDS011;17263;48.160;11.452;2023-04-06T06:51:21;10.83;;;5.80;;
30472;SDS011;17263;48.160;11.452;2023-04-06T06:53:47;7.33;;;5.80;;
30472;SDS011;17263;48.160;11.452;2023-04-06T06:56:13;8.20;;;5.20;;
30472;SDS011;17263;48.160;11.452;2023-04-06T06:58:39;7.17;;;5.43;;
30472;SDS011;17263;48.160;11.452;2023-04-06T07:01:05;5.87;;;5.27;;
30472;SDS011;17263;48.160;11.452;2023-04-06T07:03:31;7.07;;;5.53;;
30472;SDS011;17263;48.160;11.452;2023-04-06T07:05:57;9.33;;;5.20;;
30472;SDS011;17263;48.160;11.452;2023-04-06T07:08:24;7.90;;;5.50;;
30472;SDS011;17263;48.160;11.452;2023-04-06T07:10:51;6.23;;;5.40;;
30472;SDS011;17263;48.160;11.452;2023-04-06T07:13:19;6.57;;;5.33;;
30472;SDS011;17263;48.160;11.452;2023-04-06T07:15:48;5.20;;;4.70;;
30472;SDS011;17263;48.160;11.452;2023-04-06T07:18:17;7.97;;;5.37;;
30472;SDS011;17263;48.160;11.452;2023-04-06T07:20:43;11.37;;;5.90;;
30472;SDS011;17263;48.160;11.452;2023-04-06T07:23:09;9.90;;;5.63;;
30472;SDS011;17263;48.160;11.452;2023-04-06T07:25:36;9.47;;;5.77;;
30472;SDS011;17263;48.160;11.452;2023-04-06T07:28:03;6.77;;;5.87;;
30472;SDS011;17263;48.160;11.452;2023-04-06T07:30:29;12.63;;;5.47;;
30472;SDS011;17263;48.160;11.452;2023-04-06T07:32:55;8.33;;;5.93;;
30472;SDS011;17263;48.160;11.452;2023-04-06T07:35:22;6.97;;;5.23;;
30472;SDS011;17263;48.160;11.452;2023-04-06T07:37:54;6.10;;;5.40;;
30472;SDS011;17263;48.160;11.452;2023-04-06T07:40:21;8.37;;;5.40;;
30472;SDS011;17263;48.160;11.452;2023-04-06T07:42:47;6.97;;;5.30;;
30472;SDS011;17263;48.160;11.452;2023-04-06T07:45:13;6.73;;;5.60;;
30472;SDS011;17263;48.160;11.452;2023-04-06T07:47:41;7.17;;;5.90;;
30472;SDS011;17263;48.160;11.452;2023-04-06T07:50:07;7.80;;;6.37;;
30472;SDS011;17263;48.160;11.452;2023-04-06T07:52:33;6.60;;;5.90;;
30472;SDS011;17263;48.160;11.452;2023-04-06T07:55:00;7.57;;;6.00;;
30472;SDS011;17263;48.160;11.452;2023-04-06T07:57:26;7.07;;;6.00;;
30472;SDS011;17263;48.160;11.452;2023-04-06T07:59:52;9.47;;;6.20;;
30472;SDS011;17263;48.160;11.452;2023-04-06T08:02:18;9.03;;;6.13;;
30472;SDS011;17263;48.160;11.452;2023-04-06T08:04:44;7.43;;;6.50;;
30472;SDS011;17263;48.160;11.452;2023-04-06T08:07:10;7.57;;;5.90;;
30472;SDS011;17263;48.160;11.452;2023-04-06T08:09:36;7.50;;;6.20;;
30472;SDS011;17263;48.160;11.452;2023-04-06T08:12:03;7.13;;;6.40;;
30472;SDS011;17263;48.160;11.452;2023-04-06T08:14:29;6.87;;;6.00;;
30472;SDS011;17263;48.160;11.452;2023-04-06T08:16:55;7.77;;;5.83;;
30472;SDS011;17263;48.160;11.452;2023-04-06T08:19:21;7.17;;;6.47;;
30472;SDS011;17263;48.160;11.452;2023-04-06T08:21:47;8.03;;;6.80;;
30472;SDS011;17263;48.160;11.452;2023-04-06T08:24:13;7.63;;;6.27;;
30472;SDS011;17263;48.160;11.452;2023-04-06T08:26:40;8.27;;;6.50;;
30472;SDS011;17263;48.160;11.452;2023-04-06T08:29:06;8.03;;;6.43;;
30472;SDS011;17263;48.160;11.452;2023-04-06T08:31:35;9.53;;;6.70;;
30472;SDS011;17263;48.160;11.452;2023-04-06T08:34:03;8.70;;;6.63;;
30472;SDS011;17263;48.160;11.452;2023-04-06T08:36:30;9.93;;;7.73;;
30472;SDS011;17263;48.160;11.452;2023-04-06T08:38:56;9.80;;;7.37;;
30472;SDS011;17263;48.160;11.452;2023-04-06T08:41:22;8.50;;;7.30;;
30472;SDS011;17263;48.160;11.452;2023-04-06T08:43:49;8.93;;;7.97;;
30472;SDS011;17263;48.160;11.452;2023-04-06T08:46:20;8.73;;;6.80;;
30472;SDS011;17263;48.160;11.452;2023-04-06T08:48:47;7.63;;;6.27;;
30472;SDS011;17263;48.160;11.452;2023-04-06T08:51:16;9.53;;;7.00;;
30472;SDS011;17263;48.160;11.452;2023-04-06T08:53:44;7.00;;;6.30;;
30472;SDS011;17263;48.160;11.452;2023-04-06T08:56:10;7.93;;;6.97;;
30472;SDS011;17263;48.160;11.452;2023-04-06T08:58:37;8.13;;;6.70;;
30472;SDS011;17263;48.160;11.452;2023-04-06T09:01:08;9.30;;;6.40;;
30472;SDS011;17263;48.160;11.452;2023-04-06T09:03:37;8.07;;;6.40;;
30472;SDS011;17263;48.160;11.452;2023-04-06T09:06:07;9.60;;;6.30;;
30472;SDS011;17263;48.160;11.452;2023-04-06T09:08:34;7.90;;;6.77;;
30472;SDS011;17263;48.160;11.452;2023-04-06T09:11:02;6.87;;;6.27;;
30472;SDS011;17263;48.160;11.452;2023-04-06T09:13:28;8.73;;;7.23;;
30472;SDS011;17263;48.160;11.452;2023-04-06T09:16:01;8.00;;;6.37;;
30472;SDS011;17263;48.160;11.452;2023-04-06T09:18:29;7.93;;;6.63;;
30472;SDS011;17263;48.160;11.452;2023-04-06T09:20:57;7.87;;;6.80;;
30472;SDS011;17263;48.160;11.452;2023-04-06T09:23:27;7.47;;;6.43;;
30472;SDS011;17263;48.160;11.452;2023-04-06T09:28:41;7.73;;;6.93;;
30472;SDS011;17263;48.160;11.452;2023-04-06T09:31:08;7.00;;;6.30;;
30472;SDS011;17263;48.160;11.452;2023-04-06T09:33:40;7.67;;;6.87;;
30472;SDS011;17263;48.160;11.452;2023-04-06T09:36:07;7.60;;;6.50;;
30472;SDS011;17263;48.160;11.452;2023-04-06T09:38:38;9.63;;;6.60;;
30472;SDS011;17263;48.160;11.452;2023-04-06T09:44:11;8.17;;;7.37;;
30472;SDS011;17263;48.160;11.452;2023-04-06T09:46:38;7.93;;;6.80;;
30472;SDS011;17263;48.160;11.452;2023-04-06T09:49:07;7.53;;;6.77;;
30472;SDS011;17263;48.160;11.452;2023-04-06T09:51:38;11.43;;;7.90;;
30472;SDS011;17263;48.160;11.452;2023-04-06T09:54:10;10.13;;;6.90;;
30472;SDS011;17263;48.160;11.452;2023-04-06T09:56:45;9.43;;;7.43;;
30472;SDS011;17263;48.160;11.452;2023-04-06T09:59:21;8.33;;;7.33;;
30472;SDS011;17263;48.160;11.452;2023-04-06T10:01:59;8.43;;;6.77;;
30472;SDS011;17263;48.160;11.452;2023-04-06T10:07:04;8.53;;;7.67;;
30472;SDS011;17263;48.160;11.452;2023-04-06T10:09:32;8.83;;;7.80;;
30472;SDS011;17263;48.160;11.452;2023-04-06T10:12:02;10.00;;;7.13;;
30472;SDS011;17263;48.160;11.452;2023-04-06T10:14:30;10.40;;;7.27;;
30472;SDS011;17263;48.160;11.452;2023-04-06T10:17:03;8.27;;;7.33;;
30472;SDS011;17263;48.160;11.452;2023-04-06T10:19:53;8.87;;;7.97;;
30472;SDS011;17263;48.160;11.452;2023-04-06T10:22:41;8.43;;;7.23;;
30472;SDS011;17263;48.160;11.452;2023-04-06T10:25:26;8.27;;;7.47;;
30472;SDS011;17263;48.160;11.452;2023-04-06T10:28:05;7.77;;;6.97;;
30472;SDS011;17263;48.160;11.452;2023-04-06T10:30:33;8.73;;;7.87;;
30472;SDS011;17263;48.160;11.452;2023-04-06T10:33:18;10.30;;;8.00;;
30472;SDS011;17263;48.160;11.452;2023-04-06T10:35:45;9.67;;;7.83;;
30472;SDS011;17263;48.160;11.452;2023-04-06T10:38:12;9.30;;;7.20;;
30472;SDS011;17263;48.160;11.452;2023-04-06T10:40:40;8.13;;;7.33;;
30472;SDS011;17263;48.160;11.452;2023-04-06T10:43:13;10.30;;;7.70;;
30472;SDS011;17263;48.160;11.452;2023-04-06T10:45:44;8.47;;;7.67;;
30472;SDS011;17263;48.160;11.452;2023-04-06T10:48:17;8.87;;;7.93;;
30472;SDS011;17263;48.160;11.452;2023-04-06T10:50:44;8.67;;;7.77;;
30472;SDS011;17263;48.160;11.452;2023-04-06T10:53:20;7.87;;;7.07;;
30472;SDS011;17263;48.160;11.452;2023-04-06T10:55:50;8.87;;;7.47;;
30472;SDS011;17263;48.160;11.452;2023-04-06T10:58:17;8.07;;;7.27;;
30472;SDS011;17263;48.160;11.452;2023-04-06T11:00:47;7.77;;;6.80;;
30472;SDS011;17263;48.160;11.452;2023-04-06T11:03:14;7.53;;;6.60;;
30472;SDS011;17263;48.160;11.452;2023-04-06T11:05:47;7.60;;;6.90;;
30472;SDS011;17263;48.160;11.452;2023-04-06T11:08:27;7.97;;;6.70;;
30472;SDS011;17263;48.160;11.452;2023-04-06T11:11:11;10.17;;;7.40;;
30472;SDS011;17263;48.160;11.452;2023-04-06T11:13:42;7.43;;;6.43;;
30472;SDS011;17263;48.160;11.452;2023-04-06T11:16:17;9.37;;;8.00;;
30472;SDS011;17263;48.160;11.452;2023-04-06T11:18:47;8.80;;;7.70;;
30472;SDS011;17263;48.160;11.452;2023-04-06T11:21:16;9.27;;;8.27;;
30472;SDS011;17263;48.160;11.452;2023-04-06T11:23:43;11.07;;;8.07;;
30472;SDS011;17263;48.160;11.452;2023-04-06T11:26:12;9.17;;;8.17;;
30472;SDS011;17263;48.160;11.452;2023-04-06T11:28:42;10.63;;;8.07;;
30472;SDS011;17263;48.160;11.452;2023-04-06T11:31:09;9.20;;;8.30;;
30472;SDS011;17263;48.160;11.452;2023-04-06T11:33:37;9.13;;;7.97;;
30472;SDS011;17263;48.160;11.452;2023-04-06T11:36:04;11.60;;;7.73;;
30472;SDS011;17263;48.160;11.452;2023-04-06T11:38:31;8.17;;;7.37;;
30472;SDS011;17263;48.160;11.452;2023-04-06T11:40:57;8.67;;;7.40;;
30472;SDS011;17263;48.160;11.452;2023-04-06T11:43:27;7.40;;;6.70;;
30472;SDS011;17263;48.160;11.452;2023-04-06T11:46:00;7.80;;;6.60;;
30472;SDS011;17263;48.160;11.452;2023-04-06T11:48:28;6.77;;;5.67;;
30472;SDS011;17263;48.160;11.452;2023-04-06T11:50:57;7.03;;;6.33;;
30472;SDS011;17263;48.160;11.452;2023-04-06T11:53:27;12.70;;;6.83;;
30472;SDS011;17263;48.160;11.452;2023-04-06T11:55:54;7.23;;;6.33;;
30472;SDS011;17263;48.160;11.452;2023-04-06T11:58:20;7.17;;;5.77;;
30472;SDS011;17263;48.160;11.452;2023-04-06T12:00:46;7.83;;;5.50;;
30472;SDS011;17263;48.160;11.452;2023-04-06T12:03:12;6.00;;;5.23;;
30472;SDS011;17263;48.160;11.452;2023-04-06T12:05:38;6.53;;;5.80;;
30472;SDS011;17263;48.160;11.452;2023-04-06T12:08:05;7.97;;;6.13;;
30472;SDS011;17263;48.160;11.452;2023-04-06T12:10:31;6.33;;;5.67;;
30472;SDS011;17263;48.160;11.452;2023-04-06T12:12:57;8.10;;;6.03;;
30472;SDS011;17263;48.160;11.452;2023-04-06T12:15:23;5.60;;;5.03;;
30472;SDS011;17263;48.160;11.452;2023-04-06T12:17:49;6.43;;;5.40;;
30472;SDS011;17263;48.160;11.452;2023-04-06T12:20:15;5.57;;;5.00;;
30472;SDS011;17263;48.160;11.452;2023-04-06T12:22:41;8.23;;;5.20;;
30472;SDS011;17263;48.160;11.452;2023-04-06T12:25:07;5.77;;;5.27;;
30472;SDS011;17263;48.160;11.452;2023-04-06T12:27:33;6.30;;;5.67;;
30472;SDS011;17263;48.160;11.452;2023-04-06T12:29:59;7.37;;;5.93;;
30472;SDS011;17263;48.160;11.452;2023-04-06T12:32:25;6.43;;;5.63;;
30472;SDS011;17263;48.160;11.452;2023-04-06T12:34:52;6.97;;;5.50;;
30472;SDS011;17263;48.160;11.452;2023-04-06T12:37:18;8.47;;;5.80;;
30472;SDS011;17263;48.160;11.452;2023-04-06T12:39:45;6.63;;;5.93;;
30472;SDS011;17263;48.160;11.452;2023-04-06T12:42:11;8.43;;;6.37;;
30472;SDS011;17263;48.160;11.452;2023-04-06T12:44:39;6.87;;;6.20;;
30472;SDS011;17263;48.160;11.452;2023-04-06T12:47:05;7.90;;;5.83;;
30472;SDS011;17263;48.160;11.452;2023-04-06T12:49:32;6.40;;;5.77;;
30472;SDS011;17263;48.160;11.452;2023-04-06T12:51:58;6.60;;;5.83;;
30472;SDS011;17263;48.160;11.452;2023-04-06T12:54:24;7.07;;;6.33;;
30472;SDS011;17263;48.160;11.452;2023-04-06T12:56:52;6.27;;;5.40;;
30472;SDS011;17263;48.160;11.452;2023-04-06T12:59:18;6.30;;;5.70;;
30472;SDS011;17263;48.160;11.452;2023-04-06T13:01:44;6.60;;;5.97;;
30472;SDS011;17263;48.160;11.452;2023-04-06T13:04:10;7.07;;;5.77;;
30472;SDS011;17263;48.160;11.452;2023-04-06T13:06:36;8.73;;;5.80;;
30472;SDS011;17263;48.160;11.452;2023-04-06T13:09:02;6.47;;;5.70;;
30472;SDS011;17263;48.160;11.452;2023-04-06T13:11:29;6.40;;;5.80;;
30472;SDS011;17263;48.160;11.452;2023-04-06T13:13:55;6.93;;;6.23;;
30472;SDS011;17263;48.160;11.452;2023-04-06T13:16:21;6.30;;;5.70;;
30472;SDS011;17263;48.160;11.452;2023-04-06T13:18:47;7.20;;;6.47;;
30472;SDS011;17263;48.160;11.452;2023-04-06T13:21:14;6.93;;;6.23;;
30472;SDS011;17263;48.160;11.452;2023-04-06T13:23:41;6.50;;;5.90;;
30472;SDS011;17263;48.160;11.452;2023-04-06T13:26:07;7.23;;;6.53;;
30472;SDS011;17263;48.160;11.452;2023-04-06T13:28:34;6.50;;;5.90;;
30472;SDS011;17263;48.160;11.452;2023-04-06T13:31:03;6.00;;;5.40;;
30472;SDS011;17263;48.160;11.452;2023-04-06T13:33:29;6.13;;;5.43;;
30472;SDS011;17263;48.160;11.452;2023-04-06T13:35:56;5.93;;;5.43;;
30472;SDS011;17263;48.160;11.452;2023-04-06T13:38:22;6.67;;;6.00;;
30472;SDS011;17263;48.160;11.452;2023-04-06T13:40:49;7.03;;;5.87;;
30472;SDS011;17263;48.160;11.452;2023-04-06T13:43:16;7.33;;;5.90;;
30472;SDS011;17263;48.160;11.452;2023-04-06T13:45:51;7.87;;;5.93;;
30472;SDS011;17263;48.160;11.452;2023-04-06T13:48:20;6.00;;;5.43;;
30472;SDS011;17263;48.160;11.452;2023-04-06T13:50:46;6.03;;;4.93;;
30472;SDS011;17263;48.160;11.452;2023-04-06T13:53:13;6.17;;;4.87;;
30472;SDS011;17263;48.160;11.452;2023-04-06T13:55:39;7.50;;;5.53;;
30472;SDS011;17263;48.160;11.452;2023-04-06T13:58:05;6.30;;;5.47;;
30472;SDS011;17263;48.160;11.452;2023-04-06T14:00:31;5.70;;;5.17;;
30472;SDS011;17263;48.160;11.452;2023-04-06T14:02:57;5.87;;;5.23;;
30472;SDS011;17263;48.160;11.452;2023-04-06T14:05:23;6.27;;;5.03;;
30472;SDS011;17263;48.160;11.452;2023-04-06T14:07:49;6.00;;;5.40;;
30472;SDS011;17263;48.160;11.452;2023-04-06T14:10:15;6.03;;;5.53;;
30472;SDS011;17263;48.160;11.452;2023-04-06T14:12:42;5.60;;;5.10;;
30472;SDS011;17263;48.160;11.452;2023-04-06T14:15:10;6.87;;;5.10;;
30472;SDS011;17263;48.160;11.452;2023-04-06T14:17:37;7.57;;;5.27;;
30472;SDS011;17263;48.160;11.452;2023-04-06T14:20:07;5.10;;;4.60;;
30472;SDS011;17263;48.160;11.452;2023-04-06T14:22:33;6.07;;;4.63;;
30472;SDS011;17263;48.160;11.452;2023-04-06T14:24:59;5.10;;;4.60;;
30472;SDS011;17263;48.160;11.452;2023-04-06T14:27:25;4.97;;;4.50;;
30472;SDS011;17263;48.160;11.452;2023-04-06T14:29:51;5.63;;;5.03;;
30472;SDS011;17263;48.160;11.452;2023-04-06T14:32:19;5.10;;;4.60;;
30472;SDS011;17263;48.160;11.452;2023-04-06T14:34:46;6.00;;;4.70;;
30472;SDS011;17263;48.160;11.452;2023-04-06T14:37:12;5.10;;;4.60;;
30472;SDS011;17263;48.160;11.452;2023-04-06T14:39:38;5.10;;;4.53;;
30472;SDS011;17263;48.160;11.452;2023-04-06T14:42:04;5.57;;;3.87;;